Terminal Aerodrome Forecast
Issued by NWS Mt. Holly, NJ

Home | Current Version | Previous Version | Text Only | Print | Product List | Glossary On
Versions: 1 2 3 4 5 6 7 8 9 10 11 12 13 14 15 16
221
FTUS41 KPHI 111359 AAA
TAFRDG
TAF AMD
KRDG 111359Z 1114/1212 18004KT P6SM OVC050
      TEMPO 1114/1118 6SM -SN BR SCT025 OVC040
     FM111800 18006KT 3SM -SN BR OVC025
     FM112300 16006KT P6SM SCT025 OVC060
     FM120400 14004KT 3SM -SN BR SCT007 OVC015
     FM120600 VRB03KT 2SM -FZRAPL BR OVC007
     FM121000 22004KT 2SM RA BR OVC005=

USA.gov is the U.S. government's official web portal to all federal, state and local government web resources and services.